Time;durP1;ratioP1;P1;durP2;ratioP2;P2;SDS_P1;SDS_P2;PMS_P1;PMS_P2;Temp;Humidity;BMP_temperature;BMP_pressure;BME280_temperature;BME280_humidity;BME280_pressure;Samples;Min_cycle;Max_cycle;Signal;HPM_P1;HPM_P2
2023/03/09 00:01:19;;;;;;;2.20;2.00;;;17.10;50.70;;;;;;5113467;27;20616;-56
2023/03/09 00:03:44;;;;;;;2.03;1.92;;;17.10;50.70;;;;;;5113885;28;20673;-52
2023/03/09 00:06:10;;;;;;;2.10;2.00;;;17.00;50.70;;;;;;5113969;28;20264;-54
2023/03/09 00:08:35;;;;;;;2.50;2.30;;;17.00;50.70;;;;;;5113301;28;20201;-53
2023/03/09 00:11:04;;;;;;;2.80;2.60;;;16.90;50.70;;;;;;5113298;28;20223;-54
2023/03/09 00:13:29;;;;;;;2.28;2.17;;;16.90;51.30;;;;;;5113557;28;20223;-54
2023/03/09 00:15:55;;;;;;;2.15;2.05;;;16.90;50.70;;;;;;5113645;28;20181;-55
2023/03/09 00:18:21;;;;;;;2.03;1.92;;;16.90;51.30;;;;;;5114132;28;20165;-53
2023/03/09 00:20:46;;;;;;;2.35;2.17;;;16.90;50.70;;;;;;5112912;28;20184;-56
2023/03/09 00:23:12;;;;;;;2.60;2.40;;;16.80;50.70;;;;;;5113727;28;20236;-51
2023/03/09 00:25:38;;;;;;;2.35;2.25;;;16.80;50.70;;;;;;5113873;28;20172;-51
2023/03/09 00:28:03;;;;;;;2.90;2.70;;;16.80;50.70;;;;;;5112834;28;20177;-54
2023/03/09 00:30:29;;;;;;;2.58;2.38;;;16.80;50.70;;;;;;5113813;28;20165;-51
2023/03/09 00:32:54;;;;;;;2.22;2.13;;;16.80;50.70;;;;;;5113346;28;20197;-54
2023/03/09 00:35:20;;;;;;;3.08;2.88;;;16.70;50.70;;;;;;5113094;28;20176;-54
2023/03/09 00:37:46;;;;;;;2.60;2.40;;;16.70;50.70;;;;;;5113415;28;20310;-54
2023/03/09 00:40:12;;;;;;;2.78;2.30;;;16.70;50.70;;;;;;5113546;27;20661;-51
2023/03/09 00:42:38;;;;;;;2.95;2.67;;;16.70;50.70;;;;;;5112715;28;20299;-56
2023/03/09 00:45:04;;;;;;;2.55;2.42;;;16.70;50.70;;;;;;5113199;28;20264;-56
2023/03/09 00:47:30;;;;;;;2.85;2.65;;;16.70;50.70;;;;;;5113758;28;20177;-53
2023/03/09 00:49:56;;;;;;;2.63;2.42;;;16.70;50.80;;;;;;5112611;28;20162;-52
2023/03/09 00:52:21;;;;;;;2.72;2.63;;;16.60;50.70;;;;;;5113612;28;20179;-52
2023/03/09 00:54:49;;;;;;;2.90;2.70;;;16.60;50.70;;;;;;5113241;28;20172;-51
2023/03/09 00:57:15;;;;;;;2.75;2.55;;;16.60;50.70;;;;;;5112655;28;20200;-52
2023/03/09 00:59:44;;;;;;;2.75;2.55;;;16.60;50.70;;;;;;5113253;28;20247;-53
2023/03/09 01:02:10;;;;;;;2.53;2.33;;;16.60;50.70;;;;;;5113399;28;20216;-53
2023/03/09 01:04:35;;;;;;;2.63;2.53;;;16.50;50.70;;;;;;5112747;28;20180;-55
2023/03/09 01:07:01;;;;;;;2.83;2.63;;;16.50;50.70;;;;;;5113246;28;20813;-53
2023/03/09 01:09:26;;;;;;;2.75;2.55;;;16.50;50.70;;;;;;5113222;28;20169;-55
2023/03/09 01:11:52;;;;;;;2.53;2.40;;;16.50;50.70;;;;;;5112214;28;20583;-54
2023/03/09 01:14:17;;;;;;;2.67;2.47;;;16.50;50.70;;;;;;5113158;28;20635;-55
2023/03/09 01:16:45;;;;;;;2.63;2.42;;;16.50;50.70;;;;;;5112775;28;20222;-53
2023/03/09 01:19:11;;;;;;;3.05;2.85;;;16.40;50.60;;;;;;5113266;28;20180;-53
2023/03/09 01:21:37;;;;;;;2.97;2.78;;;16.40;50.60;;;;;;5113073;28;20666;-53
2023/03/09 01:24:02;;;;;;;2.88;2.67;;;16.40;50.60;;;;;;5116451;28;20184;-52
2023/03/09 01:26:28;;;;;;;3.17;2.88;;;16.40;50.70;;;;;;5117243;28;20195;-53
2023/03/09 01:28:53;;;;;;;2.50;2.40;;;16.40;50.60;;;;;;5116758;28;20187;-54
2023/03/09 01:31:19;;;;;;;2.90;2.70;;;16.40;50.60;;;;;;5116628;28;20222;-53
2023/03/09 01:33:44;;;;;;;3.03;2.83;;;16.40;50.70;;;;;;5116829;28;20532;-53
2023/03/09 01:36:15;;;;;;;2.85;2.65;;;16.40;50.70;;;;;;5115535;28;20540;-55
2023/03/09 01:38:40;;;;;;;2.47;2.35;;;16.30;50.70;;;;;;5116058;28;20177;-55
2023/03/09 01:41:06;;;;;;;2.72;2.53;;;16.30;50.60;;;;;;5116347;28;20173;-55
2023/03/09 01:43:41;;;;;;;2.90;2.70;;;16.30;50.60;;;;;;5116572;28;20165;-55
2023/03/09 01:46:22;;;;;;;2.90;2.70;;;16.30;50.70;;;;;;5116078;28;20230;-55
2023/03/09 01:49:07;;;;;;;3.10;2.90;;;16.30;50.70;;;;;;5116511;28;20192;-55
2023/03/09 01:51:56;;;;;;;2.80;2.60;;;16.30;50.70;;;;;;5116163;28;20202;-54
2023/03/09 01:54:39;;;;;;;2.97;2.78;;;16.30;50.60;;;;;;5116883;28;20173;-55
2023/03/09 01:57:19;;;;;;;2.80;2.60;;;16.20;50.60;;;;;;5116152;28;20185;-53
2023/03/09 01:59:44;;;;;;;2.97;2.78;;;16.20;50.60;;;;;;5115437;28;20184;-54
2023/03/09 02:02:10;;;;;;;2.70;2.60;;;16.20;50.60;;;;;;5116268;28;20547;-55
2023/03/09 02:04:45;;;;;;;3.00;2.80;;;16.20;50.60;;;;;;5114974;28;20568;-56
2023/03/09 02:07:12;;;;;;;2.50;2.40;;;16.20;50.70;;;;;;5115773;28;20177;-55
2023/03/09 02:09:51;;;;;;;2.90;2.70;;;16.20;50.60;;;;;;5098129;28;20678;-51
2023/03/09 02:12:22;;;;;;;2.97;2.78;;;16.20;50.60;;;;;;5116287;28;20200;-54
2023/03/09 02:14:48;;;;;;;2.50;2.40;;;16.20;50.70;;;;;;5115136;28;20169;-52
2023/03/09 02:17:14;;;;;;;2.70;2.60;;;16.10;50.60;;;;;;5115019;28;20173;-55
2023/03/09 02:19:45;;;;;;;2.70;2.50;;;16.10;50.60;;;;;;5114907;28;20226;-53
2023/03/09 02:22:11;;;;;;;3.38;3.17;;;16.10;50.60;;;;;;5115200;28;20307;-55
2023/03/09 02:25:03;;;;;;;3.13;2.92;;;16.10;50.60;;;;;;5114858;28;20654;-54
2023/03/09 02:27:29;;;;;;;3.17;2.97;;;16.10;51.30;;;;;;5105150;28;20227;-55
2023/03/09 02:29:55;;;;;;;2.75;2.55;;;16.10;50.60;;;;;;5097475;28;20173;-55
2023/03/09 02:32:20;;;;;;;2.45;2.33;;;16.10;50.70;;;;;;5115820;28;20234;-56
2023/03/09 02:34:46;;;;;;;2.97;2.78;;;16.10;50.60;;;;;;5114301;28;20688;-55
2023/03/09 02:37:29;;;;;;;2.60;2.40;;;15.90;50.50;;;;;;5115644;28;20173;-55
2023/03/09 02:39:56;;;;;;;3.20;2.97;;;16.00;50.60;;;;;;5115657;28;20179;-56
2023/03/09 02:42:22;;;;;;;3.20;3.00;;;16.00;50.60;;;;;;5115119;28;20223;-54
2023/03/09 02:44:48;;;;;;;2.90;2.70;;;16.00;50.60;;;;;;5114173;28;20253;-55
2023/03/09 02:47:16;;;;;;;2.88;2.67;;;16.00;50.60;;;;;;5115706;28;20605;-55
2023/03/09 02:49:42;;;;;;;2.90;2.70;;;16.00;50.60;;;;;;5113298;28;20173;-55
2023/03/09 02:52:07;;;;;;;3.00;2.80;;;16.00;50.60;;;;;;5115466;28;20646;-54
2023/03/09 02:54:33;;;;;;;3.13;2.92;;;15.90;50.60;;;;;;5115519;28;20584;-52
2023/03/09 02:56:58;;;;;;;2.95;2.75;;;15.90;50.60;;;;;;5114443;28;20655;-54
2023/03/09 02:59:24;;;;;;;2.90;2.70;;;15.90;50.60;;;;;;5115310;28;20662;-56
2023/03/09 03:01:50;;;;;;;3.00;2.80;;;15.90;50.60;;;;;;5114779;28;20666;-54
2023/03/09 03:04:15;;;;;;;3.10;2.90;;;15.90;50.60;;;;;;5114472;28;20185;-55
2023/03/09 03:06:41;;;;;;;3.05;2.85;;;15.90;50.60;;;;;;5113792;28;20177;-55
2023/03/09 03:09:06;;;;;;;3.17;2.97;;;15.90;50.70;;;;;;5115303;28;20639;-52
2023/03/09 03:11:32;;;;;;;3.10;2.90;;;15.90;50.60;;;;;;5114513;28;20177;-51
2023/03/09 03:13:57;;;;;;;3.30;3.10;;;15.90;50.60;;;;;;5114808;28;20461;-51
2023/03/09 03:16:23;;;;;;;3.33;3.13;;;15.80;50.60;;;;;;5114345;28;20622;-53
2023/03/09 03:18:48;;;;;;;3.00;2.80;;;15.90;50.60;;;;;;5114682;28;20580;-54
2023/03/09 03:21:14;;;;;;;3.15;2.95;;;15.90;50.60;;;;;;5114586;28;20176;-52
2023/03/09 03:23:39;;;;;;;3.10;2.90;;;15.80;50.60;;;;;;5113771;28;20252;-55
2023/03/09 03:26:08;;;;;;;3.10;2.90;;;15.80;50.60;;;;;;5114506;28;20169;-51
2023/03/09 03:28:34;;;;;;;3.00;2.80;;;15.80;50.60;;;;;;5114806;28;20173;-54
2023/03/09 03:30:59;;;;;;;3.20;3.00;;;15.80;50.60;;;;;;5113818;28;20521;-49
2023/03/09 03:33:25;;;;;;;2.92;2.72;;;15.80;50.70;;;;;;5114524;28;20165;-52
2023/03/09 03:35:51;;;;;;;3.17;2.97;;;15.80;50.60;;;;;;5114094;28;20176;-53
2023/03/09 03:38:16;;;;;;;3.45;3.25;;;15.80;50.60;;;;;;5113697;28;20203;-54
2023/03/09 03:40:42;;;;;;;3.00;2.80;;;15.70;50.60;;;;;;5113945;28;20204;-54
2023/03/09 03:43:07;;;;;;;3.00;2.83;;;15.70;50.60;;;;;;5114224;28;20240;-52
2023/03/09 03:45:33;;;;;;;2.90;2.70;;;15.70;50.50;;;;;;5112583;28;20204;-52
2023/03/09 03:47:58;;;;;;;3.38;3.17;;;15.70;50.60;;;;;;5113731;28;20177;-53
2023/03/09 03:50:24;;;;;;;4.05;3.67;;;15.70;50.60;;;;;;5113965;28;20188;-51
2023/03/09 03:52:49;;;;;;;3.30;3.10;;;15.70;50.60;;;;;;5112921;28;20173;-50
2023/03/09 03:55:15;;;;;;;3.58;3.38;;;15.70;50.60;;;;;;5114080;28;20165;-53
2023/03/09 03:57:40;;;;;;;3.60;3.30;;;15.70;50.60;;;;;;5114147;28;20264;-55
2023/03/09 04:00:10;;;;;;;3.10;2.90;;;15.70;50.70;;;;;;5113196;28;20246;-54
2023/03/09 04:02:36;;;;;;;3.25;3.05;;;15.70;50.60;;;;;;5114007;28;20204;-55
2023/03/09 04:05:02;;;;;;;3.30;3.10;;;15.70;50.60;;;;;;5113882;28;20171;-51
2023/03/09 04:07:27;;;;;;;2.92;2.72;;;15.70;50.60;;;;;;5113468;28;20234;-53
2023/03/09 04:09:53;;;;;;;3.28;3.08;;;15.60;50.60;;;;;;5113671;28;20184;-55
2023/03/09 04:12:19;;;;;;;3.13;2.92;;;15.60;50.60;;;;;;5113894;28;20184;-56
2023/03/09 04:14:44;;;;;;;3.08;2.88;;;15.70;50.70;;;;;;5112884;28;20193;-51
2023/03/09 04:17:10;;;;;;;3.10;2.90;;;15.60;50.60;;;;;;5113909;28;20623;-54
2023/03/09 04:19:36;;;;;;;3.33;3.13;;;15.60;50.60;;;;;;5113531;28;20165;-54
2023/03/09 04:22:01;;;;;;;3.53;3.33;;;15.60;50.70;;;;;;5113300;28;20270;-53
2023/03/09 04:24:27;;;;;;;3.17;2.97;;;15.60;50.60;;;;;;5113858;28;20165;-53
2023/03/09 04:26:52;;;;;;;3.47;3.28;;;15.60;50.60;;;;;;5112558;28;20177;-51
2023/03/09 04:29:18;;;;;;;2.95;2.75;;;15.60;50.60;;;;;;5113728;28;20184;-53
2023/03/09 04:31:43;;;;;;;3.38;3.17;;;15.50;50.60;;;;;;5113265;28;20291;-53
2023/03/09 04:34:10;;;;;;;3.22;3.03;;;15.50;50.60;;;;;;5112783;28;20200;-50
2023/03/09 04:36:36;;;;;;;3.17;2.97;;;15.50;50.60;;;;;;5112551;28;20173;-52
2023/03/09 04:39:01;;;;;;;3.63;3.38;;;15.50;50.60;;;;;;5113035;28;20663;-52
2023/03/09 04:41:27;;;;;;;3.45;3.25;;;15.50;50.60;;;;;;5112540;28;20204;-51
2023/03/09 04:43:52;;;;;;;3.65;3.45;;;15.50;50.60;;;;;;5113011;28;20286;-51
2023/03/09 04:46:18;;;;;;;3.35;3.15;;;15.40;50.60;;;;;;5113216;28;20169;-52
2023/03/09 04:48:43;;;;;;;3.70;3.40;;;15.50;50.70;;;;;;5112263;28;20188;-50
2023/03/09 04:51:09;;;;;;;3.60;3.40;;;15.50;50.60;;;;;;5113445;28;20169;-52
2023/03/09 04:53:34;;;;;;;3.60;3.40;;;15.50;50.70;;;;;;5113444;28;20184;-53
2023/03/09 04:56:00;;;;;;;3.22;3.03;;;15.50;50.60;;;;;;5112143;28;20176;-54
2023/03/09 04:58:25;;;;;;;3.65;3.35;;;15.50;50.70;;;;;;5113060;28;20574;-54
2023/03/09 05:00:51;;;;;;;3.30;3.10;;;15.40;50.60;;;;;;5112893;28;20165;-53
2023/03/09 05:03:16;;;;;;;3.30;3.10;;;15.40;50.70;;;;;;5110839;28;20238;-53
2023/03/09 05:05:42;;;;;;;3.35;3.15;;;15.40;50.60;;;;;;5113021;28;20170;-55
2023/03/09 05:08:07;;;;;;;3.30;3.10;;;15.40;50.60;;;;;;5113213;28;20515;-54
2023/03/09 05:10:33;;;;;;;3.20;3.00;;;15.40;50.70;;;;;;5112122;28;20716;-53
2023/03/09 05:12:58;;;;;;;3.85;3.58;;;15.40;50.70;;;;;;5112777;28;20260;-53
2023/03/09 05:15:24;;;;;;;3.38;3.17;;;15.30;50.60;;;;;;5113057;28;20181;-53
2023/03/09 05:17:49;;;;;;;3.83;3.53;;;15.40;50.70;;;;;;5111906;28;20165;-53
2023/03/09 05:20:16;;;;;;;3.72;3.53;;;15.40;50.70;;;;;;5112664;28;20260;-49
2023/03/09 05:22:42;;;;;;;3.80;3.50;;;15.30;50.70;;;;;;5112191;28;20225;-50
2023/03/09 05:25:07;;;;;;;3.25;3.05;;;15.40;50.70;;;;;;5111927;28;20213;-54
2023/03/09 05:27:33;;;;;;;3.63;3.42;;;15.30;50.60;;;;;;5112714;28;20172;-55
2023/03/09 05:29:58;;;;;;;3.60;3.40;;;15.40;50.70;;;;;;5111438;28;20173;-54
2023/03/09 05:32:24;;;;;;;3.30;3.10;;;15.30;50.60;;;;;;5112544;28;20315;-54
2023/03/09 05:34:50;;;;;;;3.63;3.42;;;15.30;50.70;;;;;;5112387;28;20201;-53
2023/03/09 05:37:15;;;;;;;3.47;3.28;;;15.40;50.70;;;;;;5112055;28;20180;-55
2023/03/09 05:39:41;;;;;;;3.60;3.40;;;15.30;50.70;;;;;;5112565;28;20179;-55
2023/03/09 05:42:06;;;;;;;3.90;3.70;;;15.30;50.70;;;;;;5112041;28;20635;-54
2023/03/09 05:44:32;;;;;;;3.42;3.22;;;15.30;50.70;;;;;;5111708;28;20229;-56
2023/03/09 05:46:58;;;;;;;3.63;3.42;;;15.30;50.70;;;;;;5112035;28;20189;-53
2023/03/09 05:49:27;;;;;;;3.30;3.10;;;15.30;50.70;;;;;;5112588;28;20320;-54
2023/03/09 05:51:56;;;;;;;3.38;3.17;;;15.30;50.70;;;;;;5111577;28;20201;-52
2023/03/09 05:54:22;;;;;;;3.88;3.67;;;15.30;50.70;;;;;;5112380;28;20169;-54
2023/03/09 05:56:47;;;;;;;3.17;2.97;;;15.20;50.60;;;;;;5112174;28;20219;-54
2023/03/09 05:59:13;;;;;;;3.42;3.22;;;15.30;50.70;;;;;;5111684;28;20517;-54
2023/03/09 06:01:38;;;;;;;3.85;3.55;;;15.20;50.70;;;;;;5112128;28;20201;-55
2023/03/09 06:04:04;;;;;;;3.83;3.53;;;15.20;50.60;;;;;;5112143;28;20272;-55
2023/03/09 06:06:30;;;;;;;3.40;3.20;;;15.20;50.70;;;;;;5111628;28;20268;-55
2023/03/09 06:08:55;;;;;;;3.53;3.33;;;15.20;50.70;;;;;;5113914;28;20169;-55
2023/03/09 06:11:21;;;;;;;3.97;3.78;;;15.20;50.70;;;;;;5115990;28;20188;-55
2023/03/09 06:13:46;;;;;;;3.65;3.40;;;15.20;50.70;;;;;;5114931;28;20651;-55
2023/03/09 06:16:16;;;;;;;3.70;3.50;;;15.20;50.70;;;;;;5115852;28;20184;-54
2023/03/09 06:18:42;;;;;;;3.45;3.25;;;15.10;50.70;;;;;;5116008;28;20636;-54
2023/03/09 06:21:08;;;;;;;4.00;3.70;;;15.10;50.70;;;;;;5115029;28;20170;-55
2023/03/09 06:23:35;;;;;;;3.83;3.50;;;15.20;50.70;;;;;;5115637;28;20247;-54
2023/03/09 06:26:02;;;;;;;3.95;3.65;;;15.10;50.70;;;;;;5115478;28;20177;-55
2023/03/09 06:28:28;;;;;;;3.65;3.35;;;15.10;50.70;;;;;;5114931;28;20173;-48
2023/03/09 06:30:53;;;;;;;3.60;3.40;;;15.10;50.70;;;;;;5115252;28;20176;-49
2023/03/09 06:33:19;;;;;;;3.65;3.45;;;15.20;50.80;;;;;;5114945;28;20178;-52
2023/03/09 06:35:44;;;;;;;3.67;3.47;;;15.10;50.70;;;;;;5115380;28;20176;-53
2023/03/09 06:38:10;;;;;;;3.42;3.22;;;15.10;50.70;;;;;;5115600;28;20226;-52
2023/03/09 06:40:35;;;;;;;3.65;3.45;;;15.10;50.70;;;;;;5114775;28;20534;-52
2023/03/09 06:43:01;;;;;;;3.40;3.20;;;15.10;50.70;;;;;;5115280;28;20255;-53
2023/03/09 06:45:26;;;;;;;4.22;3.92;;;15.10;50.80;;;;;;5115145;28;20177;-54
2023/03/09 06:47:55;;;;;;;3.78;3.58;;;15.10;50.80;;;;;;5114211;28;20534;-51
2023/03/09 06:50:21;;;;;;;4.20;3.90;;;15.10;50.70;;;;;;5115376;28;20173;-52
2023/03/09 06:52:47;;;;;;;3.75;3.55;;;15.10;50.80;;;;;;5114981;28;20173;-51
2023/03/09 06:55:13;;;;;;;4.18;3.88;;;15.00;51.40;;;;;;5114607;28;20173;-52
2023/03/09 06:57:38;;;;;;;3.80;3.53;;;15.00;50.70;;;;;;5115032;28;20177;-53
2023/03/09 07:00:04;;;;;;;3.67;3.47;;;15.00;50.80;;;;;;5114761;28;20172;-52
2023/03/09 07:02:31;;;;;;;4.18;3.88;;;15.00;50.80;;;;;;5114432;28;20209;-52
2023/03/09 07:04:56;;;;;;;3.42;3.22;;;15.10;50.70;;;;;;5114884;28;20173;-55
2023/03/09 07:07:22;;;;;;;3.75;3.55;;;15.10;50.70;;;;;;5115042;28;20180;-54
2023/03/09 07:09:47;;;;;;;2.95;2.75;;;15.20;50.60;;;;;;5113826;28;20542;-54
2023/03/09 07:12:13;;;;;;;3.03;2.83;;;15.30;50.50;;;;;;5114708;28;20624;-51
2023/03/09 07:14:38;;;;;;;2.92;2.80;;;15.50;50.30;;;;;;5114643;28;20252;-51
2023/03/09 07:17:04;;;;;;;2.75;2.55;;;15.60;50.00;;;;;;5113773;28;20314;-51
2023/03/09 07:19:30;;;;;;;3.00;2.80;;;15.80;49.90;;;;;;5113871;28;20604;-53
2023/03/09 07:21:55;;;;;;;2.45;2.33;;;16.00;49.70;;;;;;5114219;28;20232;-52
2023/03/09 07:24:21;;;;;;;2.42;2.33;;;16.20;49.40;;;;;;5114072;28;20197;-54
2023/03/09 07:26:47;;;;;;;2.47;2.38;;;16.20;49.20;;;;;;5114432;28;20170;-54
2023/03/09 07:29:13;;;;;;;2.60;2.40;;;16.30;49.20;;;;;;5114568;28;20216;-51
2023/03/09 07:31:39;;;;;;;2.83;2.63;;;16.20;49.20;;;;;;5114114;28;20225;-54
2023/03/09 07:34:05;;;;;;;2.20;2.10;;;16.20;49.30;;;;;;5114439;28;20177;-52
2023/03/09 07:36:30;;;;;;;2.13;2.03;;;16.20;49.30;;;;;;5114543;28;20214;-51
2023/03/09 07:38:56;;;;;;;2.30;2.20;;;16.30;49.30;;;;;;5113535;28;20173;-52
2023/03/09 07:41:21;;;;;;;2.47;2.38;;;16.30;49.30;;;;;;5114351;28;20169;-50
2023/03/09 07:43:47;;;;;;;2.13;2.03;;;16.20;49.20;;;;;;5113295;28;20173;-54
2023/03/09 07:46:16;;;;;;;2.35;2.25;;;16.30;49.20;;;;;;5114586;28;20176;-49
2023/03/09 07:48:42;;;;;;;2.55;2.35;;;16.30;49.20;;;;;;5114150;28;20197;-51
2023/03/09 07:51:07;;;;;;;2.55;2.45;;;16.40;49.20;;;;;;5113394;28;20219;-63
2023/03/09 07:53:34;;;;;;;2.90;2.60;;;16.50;49.20;;;;;;5114197;28;20193;-63
2023/03/09 07:56:03;;;;;;;2.90;2.67;;;16.50;49.20;;;;;;5113526;28;20177;-64
2023/03/09 07:58:32;;;;;;;2.60;2.40;;;16.60;49.20;;;;;;5113306;28;20177;-66
2023/03/09 08:00:58;;;;;;;2.97;2.30;;;16.60;49.20;;;;;;5113528;28;20184;-64
2023/03/09 08:03:24;;;;;;;3.00;2.80;;;16.70;49.30;;;;;;5113635;28;20212;-63
2023/03/09 08:05:49;;;;;;;2.53;2.33;;;16.80;49.30;;;;;;5112889;28;20237;-63
2023/03/09 08:08:15;;;;;;;3.03;2.80;;;16.80;49.50;;;;;;5113675;28;20188;-63
2023/03/09 08:10:47;;;;;;;2.85;2.65;;;16.90;49.80;;;;;;5113707;28;20562;-67
2023/03/09 08:13:13;;;;;;;4.25;2.58;;;16.90;49.80;;;;;;5112927;28;20240;-63
2023/03/09 08:15:38;;;;;;;3.30;2.65;;;16.90;50.00;;;;;;5113666;28;20643;-63
2023/03/09 08:18:04;;;;;;;3.42;3.10;;;16.80;50.10;;;;;;5113580;28;20177;-62
2023/03/09 08:20:30;;;;;;;2.95;2.75;;;16.70;50.40;;;;;;5112919;28;20573;-63
2023/03/09 08:22:56;;;;;;;3.20;2.90;;;16.60;50.60;;;;;;5113101;28;20238;-63
2023/03/09 08:25:22;;;;;;;2.70;2.50;;;16.60;50.90;;;;;;5113358;28;20248;-64
2023/03/09 08:27:48;;;;;;;3.00;2.70;;;16.50;51.10;;;;;;5112306;28;20215;-63
2023/03/09 08:30:14;;;;;;;4.25;2.80;;;16.50;51.30;;;;;;5113465;28;20165;-63
2023/03/09 08:32:39;;;;;;;3.55;2.80;;;16.40;51.40;;;;;;5113141;28;20180;-64
2023/03/09 08:35:05;;;;;;;4.35;2.90;;;16.40;51.40;;;;;;5112387;28;20541;-66
2023/03/09 08:37:31;;;;;;;3.13;2.83;;;16.30;51.40;;;;;;5113245;28;20176;-65
2023/03/09 08:39:56;;;;;;;4.78;3.38;;;16.30;51.40;;;;;;5112270;28;20252;-62
2023/03/09 08:42:22;;;;;;;3.63;2.78;;;16.30;51.70;;;;;;5113104;28;20345;-62
2023/03/09 08:44:47;;;;;;;4.05;3.08;;;16.20;51.60;;;;;;5113076;28;20206;-62
2023/03/09 08:47:13;;;;;;;3.75;3.17;;;16.20;51.70;;;;;;5112632;28;20959;-61
2023/03/09 08:49:40;;;;;;;2.83;2.60;;;16.10;51.60;;;;;;5113358;28;20623;-61
2023/03/09 08:52:06;;;;;;;4.63;2.80;;;16.10;51.60;;;;;;5112761;28;20169;-61
2023/03/09 08:54:32;;;;;;;3.45;2.67;;;16.10;51.70;;;;;;5112266;28;20528;-61
2023/03/09 08:56:57;;;;;;;6.88;2.97;;;16.00;52.20;;;;;;5112442;28;20184;-63
2023/03/09 08:59:23;;;;;;;3.72;2.53;;;15.90;51.70;;;;;;5112730;28;20177;-63
2023/03/09 09:01:48;;;;;;;4.25;2.70;;;15.90;51.70;;;;;;5111758;28;20204;-63
2023/03/09 09:04:14;;;;;;;4.60;2.67;;;15.90;51.70;;;;;;5112726;28;20678;-62
2023/03/09 09:06:39;;;;;;;3.17;2.88;;;15.90;51.70;;;;;;5112721;28;20180;-62
2023/03/09 09:09:05;;;;;;;3.47;2.58;;;15.80;51.60;;;;;;5111633;28;20173;-62
2023/03/09 09:11:32;;;;;;;3.03;2.72;;;15.80;51.70;;;;;;5112700;28;20302;-62
2023/03/09 09:13:58;;;;;;;5.43;2.85;;;15.80;51.70;;;;;;5112697;28;20200;-62
2023/03/09 09:16:23;;;;;;;4.63;2.75;;;15.70;51.70;;;;;;5112200;28;20184;-62
2023/03/09 09:18:49;;;;;;;2.90;2.70;;;15.70;51.70;;;;;;5112526;28;20173;-62
2023/03/09 09:21:15;;;;;;;3.42;3.08;;;15.70;51.70;;;;;;5112601;28;20183;-62
2023/03/09 09:23:42;;;;;;;3.80;2.92;;;15.70;51.80;;;;;;5111755;28;20228;-63
2023/03/09 09:26:07;;;;;;;3.50;3.05;;;15.70;51.70;;;;;;5112895;28;20180;-62
2023/03/09 09:28:33;;;;;;;3.83;2.70;;;15.70;51.80;;;;;;5112730;28;20173;-63
2023/03/09 09:30:59;;;;;;;2.83;2.60;;;15.70;51.80;;;;;;5111597;28;20180;-62
2023/03/09 09:33:27;;;;;;;6.28;2.80;;;15.60;51.70;;;;;;5112834;28;20264;-64
2023/03/09 09:36:03;;;;;;;3.45;2.78;;;15.60;51.70;;;;;;5112242;28;20264;-62
2023/03/09 09:38:29;;;;;;;2.95;2.70;;;15.60;51.70;;;;;;5111759;28;20176;-63
2023/03/09 09:40:55;;;;;;;3.20;2.90;;;15.60;51.70;;;;;;5112459;28;20208;-62
2023/03/09 09:43:22;;;;;;;3.17;2.97;;;15.60;51.70;;;;;;5113005;28;20624;-62
2023/03/09 09:45:47;;;;;;;2.70;2.50;;;15.60;51.70;;;;;;5116194;28;20184;-63
2023/03/09 09:48:20;;;;;;;2.83;2.63;;;15.60;51.70;;;;;;5116504;28;20173;-63
2023/03/09 09:51:24;;;;;;;3.42;3.13;;;15.60;51.70;;;;;;5115518;28;20176;-63
2023/03/09 09:54:06;;;;;;;3.67;3.38;;;15.50;51.70;;;;;;5116504;28;20173;-63
2023/03/09 09:56:57;;;;;;;3.05;2.75;;;15.50;51.70;;;;;;5115459;28;20670;-65
2023/03/09 09:59:29;;;;;;;3.72;3.05;;;15.50;51.70;;;;;;5109233;28;20631;-65
2023/03/09 10:02:21;;;;;;;3.08;2.63;;;15.60;51.80;;;;;;5115913;28;20259;-65
2023/03/09 10:04:51;;;;;;;3.38;3.08;;;15.50;51.70;;;;;;5115374;28;20505;-64
2023/03/09 10:07:18;;;;;;;3.40;3.13;;;15.40;51.60;;;;;;5115160;28;20205;-64
2023/03/09 10:09:47;;;;;;;3.97;3.20;;;15.40;51.60;;;;;;5114485;28;20647;-63
2023/03/09 10:12:16;;;;;;;3.03;2.83;;;15.40;51.60;;;;;;5114294;28;20184;-63
2023/03/09 10:14:55;;;;;;;2.72;2.53;;;15.40;51.60;;;;;;5115867;28;20189;-64
2023/03/09 10:17:24;;;;;;;3.58;3.28;;;15.40;51.60;;;;;;5116315;28;20251;-64
2023/03/09 10:19:49;;;;;;;2.95;2.75;;;15.40;51.70;;;;;;5114900;28;20173;-64
2023/03/09 10:22:22;;;;;;;3.30;3.00;;;15.40;51.70;;;;;;5114377;28;20236;-63
2023/03/09 10:24:50;;;;;;;3.17;2.85;;;15.40;51.70;;;;;;5114526;28;20177;-64
2023/03/09 10:27:41;;;;;;;3.22;2.97;;;15.40;51.70;;;;;;5115271;28;20185;-64
2023/03/09 10:30:10;;;;;;;3.53;3.22;;;15.40;51.70;;;;;;5114636;28;20256;-64
2023/03/09 10:32:42;;;;;;;3.35;3.15;;;15.30;51.70;;;;;;5114966;28;20173;-65
2023/03/09 10:35:40;;;;;;;3.00;2.70;;;15.30;51.70;;;;;;5115836;28;20174;-64
2023/03/09 10:38:13;;;;;;;2.90;2.70;;;15.30;51.70;;;;;;5114181;28;20292;-64
2023/03/09 10:40:46;;;;;;;3.40;3.05;;;15.30;51.70;;;;;;5114822;28;20176;-64
2023/03/09 10:43:27;;;;;;;3.10;2.90;;;15.30;51.70;;;;;;5115621;28;20225;-63
2023/03/09 10:45:54;;;;;;;3.50;3.22;;;15.30;51.70;;;;;;5114283;28;20173;-63
2023/03/09 10:48:24;;;;;;;3.50;3.20;;;15.30;51.70;;;;;;5114764;28;20184;-63
2023/03/09 10:50:57;;;;;;;3.42;3.22;;;15.30;51.70;;;;;;5115165;28;20248;-63
2023/03/09 10:53:48;;;;;;;3.58;3.28;;;15.30;51.80;;;;;;5115207;28;20220;-63
2023/03/09 10:56:20;;;;;;;3.33;3.03;;;15.30;51.80;;;;;;5115426;28;20238;-64
2023/03/09 10:58:45;;;;;;;3.28;3.08;;;15.20;51.70;;;;;;5114789;28;20643;-65
2023/03/09 11:01:11;;;;;;;6.35;3.03;;;15.20;51.70;;;;;;5114562;28;20188;-64
2023/03/09 11:03:38;;;;;;;3.20;3.00;;;15.20;51.70;;;;;;5114955;28;20208;-64
2023/03/09 11:06:13;;;;;;;3.55;3.25;;;15.30;51.70;;;;;;5115137;28;20173;-64
2023/03/09 11:08:42;;;;;;;3.10;2.80;;;15.20;51.70;;;;;;5114242;28;20172;-64
2023/03/09 11:11:19;;;;;;;3.30;3.00;;;15.20;51.70;;;;;;5113841;28;20543;-64
2023/03/09 11:13:45;;;;;;;3.22;3.03;;;15.20;51.60;;;;;;5113385;28;20184;-64
2023/03/09 11:16:19;;;;;;;2.95;2.75;;;15.10;51.60;;;;;;5112823;28;20252;-64
2023/03/09 11:18:45;;;;;;;3.80;3.50;;;15.20;51.70;;;;;;5113150;28;20623;-64
2023/03/09 11:21:21;;;;;;;3.17;2.97;;;15.20;51.70;;;;;;5113587;28;20184;-64
2023/03/09 11:23:47;;;;;;;3.42;3.13;;;15.20;51.70;;;;;;5113556;28;20635;-64
2023/03/09 11:26:17;;;;;;;3.47;3.28;;;15.20;51.70;;;;;;5113514;28;20173;-64
2023/03/09 11:29:04;;;;;;;3.60;3.30;;;15.20;51.70;;;;;;5112397;28;20176;-64
2023/03/09 11:31:40;;;;;;;3.25;3.05;;;15.10;51.70;;;;;;5113641;28;20201;-64
2023/03/09 11:34:07;;;;;;;3.38;3.08;;;15.20;51.70;;;;;;5113172;28;20181;-65
2023/03/09 11:36:38;;;;;;;3.70;3.40;;;15.10;51.60;;;;;;5112543;28;20177;-65
2023/03/09 11:39:04;;;;;;;3.22;2.97;;;15.10;51.60;;;;;;5112924;28;20180;-65
2023/03/09 11:41:32;;;;;;;3.35;3.10;;;15.10;51.60;;;;;;5114479;28;20252;-64
2023/03/09 11:44:22;;;;;;;3.53;3.22;;;15.10;51.60;;;;;;5112417;28;20211;-64
2023/03/09 11:46:48;;;;;;;3.58;3.28;;;15.10;51.70;;;;;;5113090;28;20228;-63
2023/03/09 11:49:19;;;;;;;3.15;2.92;;;15.10;51.50;;;;;;5113137;28;20657;-63
2023/03/09 11:51:47;;;;;;;3.30;3.10;;;15.10;51.60;;;;;;5112073;28;20201;-64
2023/03/09 11:54:17;;;;;;;3.33;3.13;;;15.10;51.70;;;;;;5114307;28;20195;-69
2023/03/09 11:56:44;;;;;;;3.70;3.40;;;15.10;51.70;;;;;;5112607;28;20573;-73
2023/03/09 11:59:18;;;;;;;3.72;3.35;;;15.10;53.50;;;;;;5112295;28;20201;-64
2023/03/09 12:01:47;;;;;;;4.03;3.63;;;15.10;52.40;;;;;;5112395;28;20215;-65
2023/03/09 12:04:15;;;;;;;6.95;3.95;;;15.10;53.00;;;;;;5112236;28;20211;-66
2023/03/09 12:07:03;;;;;;;6.80;4.03;;;15.00;52.40;;;;;;5113572;28;20566;-65
2023/03/09 12:09:39;;;;;;;5.47;4.47;;;15.00;52.30;;;;;;5112712;28;20625;-64
2023/03/09 12:12:23;;;;;;;5.25;4.10;;;15.00;52.00;;;;;;5111551;28;20181;-63
2023/03/09 12:14:51;;;;;;;4.80;3.92;;;15.00;52.10;;;;;;5113431;28;20638;-65
2023/03/09 12:17:19;;;;;;;4.65;4.25;;;15.00;52.10;;;;;;5113808;28;20241;-64
2023/03/09 12:19:51;;;;;;;4.93;4.00;;;15.10;52.10;;;;;;5111675;28;20181;-64
2023/03/09 12:22:26;;;;;;;4.57;4.18;;;15.00;51.90;;;;;;5113408;28;20220;-63
2023/03/09 12:25:02;;;;;;;4.72;4.10;;;15.10;51.90;;;;;;5112209;28;20264;-64
2023/03/09 12:27:32;;;;;;;3.60;3.35;;;15.20;51.90;;;;;;5113732;28;20201;-64
2023/03/09 12:29:58;;;;;;;3.95;3.55;;;15.20;51.90;;;;;;5113481;28;20177;-65
2023/03/09 12:32:26;;;;;;;3.63;3.33;;;15.20;51.90;;;;;;5112852;28;20196;-65
2023/03/09 12:34:59;;;;;;;4.60;3.85;;;15.20;51.90;;;;;;5113200;28;20543;-68
2023/03/09 12:37:27;;;;;;;3.63;3.33;;;15.20;52.10;;;;;;5113438;28;20329;-63
2023/03/09 12:40:15;;;;;;;3.55;3.20;;;15.30;52.10;;;;;;5112354;28;20245;-63
2023/03/09 12:42:40;;;;;;;3.92;3.28;;;15.40;52.10;;;;;;5112966;28;20208;-63
2023/03/09 12:45:12;;;;;;;3.08;2.83;;;15.50;51.90;;;;;;5113213;28;20176;-64
2023/03/09 12:47:57;;;;;;;4.85;3.33;;;15.70;51.80;;;;;;5111847;28;20173;-64
2023/03/09 12:50:24;;;;;;;3.90;2.70;;;15.90;51.50;;;;;;5134952;27;20181;-63
2023/03/09 12:53:14;;;;;;;2.80;2.60;;;16.20;51.20;;;;;;5112489;28;20226;-62